NEW MELONES RESERVOIR (NML)

Elevation: 1135' · STANISLAUS R basin · Operator: US Bureau of Reclamation

Provisional data, subject to change.
Query executed Sunday at 13:55:48   clock

Select a sensor type for a plot of data.
Note: Reservoir Flows are daily averages.

Earlier

Date RES ELE    STORAGE    RES CHG    TOC STO    ABV TOC    OUTFLOW    INFLOW    EVAP    FNF    RIV REL    PPT INC    SPILL    DIS PWR   
 FEET   AF   AF   AF   AF   CFS   CFS   CFS   CFS   CFS   INCHES   CFS   CFS  
11/22/2014 859.13 507136 1366 -- -- 44 744 11 477 0 0.05 0 44
11/23/2014 859.38 508317 1181 -- -- 8 605 2 329 0 0.31 0 8
11/24/2014 859.61 509404 1087 1970000 -1460596 8 564 8 242 0 0.00 0 8
11/25/2014 859.66 509640 236 1970000 -1460360 422 549 8 240 0 0.00 0 422
11/26/2014 859.71 509876 236 1970000 -1460124 398 525 8 189 0 0.00 0 398
11/27/2014 859.91 510821 945 1970000 -1459179 62 546 8 207 0 0.00 0 62
11/28/2014 860.00 511246 425 1970000 -1458754 394 622 14 295 0 0.00 0 394
11/29/2014 860.12 511816 570 1970000 -1458184 398 693 8 403 0 0.31 0 398
11/30/2014 860.39 513099 1283 1970000 -1456901 39 691 5 407 0 0.20 0 39
12/01/2014 860.60 514096 997 1970000 -1455904 172 680 5 381 0 0.20 0 172
12/02/2014 860.78 514951 855 1970000 -1455049 275 718 12 425 0 0.02 0 275
12/03/2014 861.08 516378 1427 1970000 -1453622 222 943 2 861 0 0.50 0 222
12/04/2014 861.44 518098 1720 1970000 -1451902 419 1286 0 1217 0 0.81 0 419
12/05/2014 861.71 519388 1290 1970000 -1450612 278 942 14 715 0 0.01 0 278
12/06/2014 861.89 520248 860 1970000 -1449752 298 737 5 467 0 0.07 0 298
12/07/2014 862.11 521302 1054 1970000 -1448698 25 567 11 312 0 0.00 0 25
12/08/2014 862.27 522071 769 1970000 -1447929 275 675 12 382 0 0.00 0 275
12/09/2014 862.39 522648 577 1970000 -1447352 324 626 11 324 0 0.00 0 324
12/10/2014 862.54 523368 720 1970000 -1446632 406 788 19 495 0 0.00 0 406
12/11/2014 862.69 524089 721 1970000 -1445911 646 1020 11 686 0 0.00 0 646
12/12/2014 863.29 526979 2890 1970000 -1443021 33 1574 84 1395 0 2.63 0 33
12/13/2014 863.56 528284 1305 1970000 -1441716 43 706 5 428 0 0.25 0 43
12/14/2014 863.86 529734 1450 1970000 -1440266 21 757 5 457 0 0.00 0 21
12/15/2014 864.12 530993 1259 1970000 -1439007 8 646 3 359 0 0.00 0 8
12/16/2014 864.32 531965 972 1970000 -1438035 261 756 5 467 0 0.29 0 261
12/17/2014 864.50 532839 874 1970000 -1437161 381 835 13 557 0 0.58 0 381
12/18/2014 864.72 533908 1069 1970000 -1436092 126 670 5 388 0 0.00 0 126
12/19/2014 865.01 535317 1409 1970000 -1434683 10 723 3 445 0 0.00 0 10
12/20/2014 865.34 536929 1612 1970000 -1433071 10 826 3 581 0 0.55 0 10
12/21/2014 -- -- -- -- -- -- -- -- -- -- -- -- --

Later | Latest

Warning! This data is preliminary and subject to revision.

Show NML Map | Plot NML Data | 1 Month NML Data | Real-Time NML Data | NML Info